createdAt,value
2022-10-17T00:00:50.371Z,14.60
2022-10-17T00:03:17.327Z,14.60
2022-10-17T00:05:46.819Z,14.60
2022-10-17T00:08:14.865Z,14.60
2022-10-17T00:10:42.716Z,14.60
2022-10-17T00:13:10.641Z,14.70
2022-10-17T00:15:38.392Z,14.70
2022-10-17T00:18:05.079Z,14.70
2022-10-17T00:20:35.952Z,14.70
2022-10-17T00:23:02.612Z,14.70
2022-10-17T00:25:29.857Z,14.80
2022-10-17T00:27:56.516Z,14.80
2022-10-17T00:30:23.621Z,14.70
2022-10-17T00:32:50.692Z,14.80
2022-10-17T00:35:18.671Z,14.80
2022-10-17T00:37:45.423Z,14.80
2022-10-17T00:40:13.332Z,14.70
2022-10-17T00:42:39.977Z,14.80
2022-10-17T00:45:18.764Z,14.70
2022-10-17T00:48:14.669Z,14.70
2022-10-17T00:50:44.389Z,14.70
2022-10-17T00:53:12.128Z,14.70
2022-10-17T00:55:45.525Z,14.70
2022-10-17T00:58:13.158Z,14.80
2022-10-17T01:00:42.814Z,14.70
2022-10-17T01:03:09.974Z,14.70
2022-10-17T01:05:38.354Z,14.70
2022-10-17T01:08:05.567Z,14.70
2022-10-17T01:11:08.738Z,14.70
2022-10-17T01:13:53.675Z,14.60
2022-10-17T01:16:23.239Z,14.70
2022-10-17T01:19:09.378Z,14.60
2022-10-17T01:21:52.499Z,14.70
2022-10-17T01:24:57.282Z,14.70
2022-10-17T01:27:42.961Z,14.70
2022-10-17T01:30:35.125Z,14.70
2022-10-17T01:33:14.251Z,14.60
2022-10-17T01:35:50.733Z,14.60
2022-10-17T01:38:27.233Z,14.60
2022-10-17T01:41:06.556Z,14.70
2022-10-17T01:43:46.912Z,14.70
2022-10-17T01:46:22.428Z,14.70
2022-10-17T01:48:49.377Z,14.60
2022-10-17T01:51:22.916Z,14.60
2022-10-17T01:53:55.121Z,14.60
2022-10-17T01:56:26.289Z,14.60
2022-10-17T01:59:00.617Z,14.50
2022-10-17T02:01:30.835Z,14.60
2022-10-17T02:04:02.041Z,14.50
2022-10-17T02:06:28.650Z,14.50
2022-10-17T02:08:56.677Z,14.50
2022-10-17T02:11:25.690Z,14.50
2022-10-17T02:14:20.011Z,14.50
2022-10-17T02:17:19.413Z,14.40
2022-10-17T02:20:17.590Z,14.40
2022-10-17T02:22:51.950Z,14.40
2022-10-17T02:25:36.782Z,14.40
2022-10-17T02:28:20.182Z,14.40
2022-10-17T02:30:55.886Z,14.40
2022-10-17T02:33:37.411Z,14.40
2022-10-17T02:36:11.742Z,14.40
2022-10-17T02:38:40.782Z,14.40
2022-10-17T02:41:11.791Z,14.40
2022-10-17T02:43:39.646Z,14.40
2022-10-17T02:46:08.013Z,14.40
2022-10-17T02:48:41.494Z,14.40
2022-10-17T02:51:15.159Z,14.40
2022-10-17T02:53:52.559Z,14.40
2022-10-17T02:56:21.244Z,14.30
2022-10-17T02:58:57.560Z,14.30
2022-10-17T03:01:25.309Z,14.20
2022-10-17T03:04:22.721Z,14.30
2022-10-17T03:06:49.606Z,14.30
2022-10-17T03:09:18.478Z,14.30
2022-10-17T03:11:45.052Z,14.20
2022-10-17T03:14:12.425Z,14.20
2022-10-17T03:16:39.609Z,14.30
2022-10-17T03:19:07.969Z,14.30
2022-10-17T03:21:36.723Z,14.20
2022-10-17T03:24:03.925Z,14.20
2022-10-17T03:26:31.284Z,14.20
2022-10-17T03:28:58.618Z,14.20
2022-10-17T03:31:28.105Z,14.20
2022-10-17T03:33:55.421Z,14.20
2022-10-17T03:36:22.693Z,14.20
2022-10-17T03:38:53.554Z,14.20
2022-10-17T03:41:21.949Z,14.20
2022-10-17T03:43:48.626Z,14.20
2022-10-17T03:46:15.972Z,14.20
2022-10-17T03:48:42.794Z,14.20
2022-10-17T03:51:10.777Z,14.20
2022-10-17T03:53:45.380Z,14.20
2022-10-17T03:56:18.836Z,14.20
2022-10-17T03:58:52.396Z,14.20
2022-10-17T04:01:20.385Z,14.10
2022-10-17T04:03:55.616Z,14.10
2022-10-17T04:06:23.319Z,14.10
2022-10-17T04:08:50.382Z,14.10
2022-10-17T04:11:23.300Z,14.10
2022-10-17T04:13:55.208Z,14.10
2022-10-17T04:16:23.588Z,14.20
2022-10-17T04:18:59.151Z,14.20
2022-10-17T04:21:30.095Z,14.20
2022-10-17T04:24:00.904Z,14.30
2022-10-17T04:26:55.192Z,14.30
2022-10-17T04:29:25.494Z,14.30
2022-10-17T04:31:56.388Z,14.30
2022-10-17T04:34:33.101Z,14.30
2022-10-17T04:36:59.693Z,14.30
2022-10-17T04:39:27.770Z,14.30
2022-10-17T04:41:56.363Z,14.40
2022-10-17T04:44:24.230Z,14.40
2022-10-17T04:46:52.261Z,14.40
2022-10-17T04:49:20.147Z,14.50
2022-10-17T04:51:50.971Z,14.60
2022-10-17T04:54:29.235Z,14.50
2022-10-17T04:57:03.099Z,14.50
2022-10-17T04:59:31.449Z,14.60
2022-10-17T05:02:21.214Z,14.60
2022-10-17T05:04:48.509Z,14.60
2022-10-17T05:07:16.042Z,14.60
2022-10-17T05:10:02.188Z,14.70
2022-10-17T05:12:31.508Z,14.60
2022-10-17T05:14:59.223Z,14.60
2022-10-17T05:17:27.559Z,14.60
2022-10-17T05:19:54.803Z,14.60
2022-10-17T05:22:22.646Z,14.60
2022-10-17T05:24:50.006Z,14.60
2022-10-17T05:27:16.606Z,14.60
2022-10-17T05:29:43.976Z,14.60
2022-10-17T05:32:18.265Z,14.60
2022-10-17T05:34:45.618Z,14.60
2022-10-17T05:37:13.115Z,14.60
2022-10-17T05:39:43.069Z,14.60
2022-10-17T05:42:10.168Z,14.60
2022-10-17T05:44:39.462Z,14.60
2022-10-17T05:47:08.607Z,14.60
2022-10-17T05:49:52.456Z,14.60
2022-10-17T05:52:32.757Z,14.70
2022-10-17T05:55:08.899Z,14.70
2022-10-17T05:57:35.597Z,14.70
2022-10-17T06:00:06.537Z,14.70
2022-10-17T06:02:42.941Z,14.70
2022-10-17T06:05:13.456Z,14.70
2022-10-17T06:07:40.800Z,14.70
2022-10-17T06:10:09.194Z,14.70
2022-10-17T06:12:36.080Z,14.80
2022-10-17T06:15:03.601Z,14.80
2022-10-17T06:17:30.624Z,14.80
2022-10-17T06:19:58.369Z,14.90
2022-10-17T06:22:24.999Z,14.90
2022-10-17T06:24:55.233Z,14.90
2022-10-17T06:27:22.897Z,15.00
2022-10-17T06:29:51.442Z,15.00
2022-10-17T06:32:18.213Z,15.10
2022-10-17T06:34:47.113Z,15.10
2022-10-17T06:37:14.646Z,15.20
2022-10-17T06:39:42.622Z,15.20
2022-10-17T06:42:15.250Z,15.30
2022-10-17T06:44:56.003Z,15.30
2022-10-17T06:47:42.158Z,15.30
2022-10-17T06:50:26.038Z,15.40
2022-10-17T06:53:11.630Z,15.40
2022-10-17T06:56:09.415Z,15.50
2022-10-17T06:58:51.639Z,15.50
2022-10-17T07:01:29.837Z,15.60
2022-10-17T07:03:59.320Z,15.70
2022-10-17T07:06:26.224Z,15.80
2022-10-17T07:08:56.031Z,15.90
2022-10-17T07:11:23.232Z,16.00
2022-10-17T07:13:52.099Z,16.10
2022-10-17T07:16:21.107Z,16.10
2022-10-17T07:18:54.632Z,16.20
2022-10-17T07:21:21.575Z,16.30
2022-10-17T07:23:48.913Z,16.30
2022-10-17T07:26:16.947Z,16.30
2022-10-17T07:28:46.164Z,16.40
2022-10-17T07:31:35.881Z,16.40
2022-10-17T07:34:03.244Z,16.40
2022-10-17T07:36:30.094Z,16.50
2022-10-17T07:38:59.238Z,16.50
2022-10-17T07:41:26.568Z,16.60
2022-10-17T07:43:54.092Z,16.80
2022-10-17T07:46:25.585Z,16.90
2022-10-17T07:48:52.333Z,17.10
2022-10-17T07:51:21.834Z,17.40
2022-10-17T07:53:49.580Z,17.60
2022-10-17T07:56:16.589Z,17.70
2022-10-17T07:58:44.045Z,17.70
2022-10-17T08:01:15.394Z,17.70
2022-10-17T08:03:48.761Z,17.80
2022-10-17T08:06:15.561Z,17.90
2022-10-17T08:08:43.729Z,18.00
2022-10-17T08:11:12.512Z,18.00
2022-10-17T08:13:41.893Z,18.20
2022-10-17T08:16:11.239Z,18.30
2022-10-17T08:18:40.230Z,18.50
2022-10-17T08:21:08.195Z,18.80
2022-10-17T08:23:36.115Z,19.10
2022-10-17T08:26:05.283Z,19.50
2022-10-17T08:28:35.440Z,20.10
2022-10-17T08:31:14.112Z,20.50
2022-10-17T08:33:42.183Z,20.60
2022-10-17T08:36:10.219Z,20.70
2022-10-17T08:38:43.206Z,20.40
2022-10-17T08:41:15.327Z,19.90
2022-10-17T08:43:57.644Z,19.50
2022-10-17T08:46:34.148Z,19.30
2022-10-17T08:49:03.040Z,19.10
2022-10-17T08:51:37.047Z,19.00
2022-10-17T08:54:18.676Z,19.00
2022-10-17T08:56:49.692Z,19.00
2022-10-17T08:59:28.561Z,19.00
2022-10-17T09:02:14.776Z,19.10
2022-10-17T09:04:49.737Z,19.20
2022-10-17T09:07:26.161Z,19.30
2022-10-17T09:10:06.816Z,19.30
2022-10-17T09:13:07.823Z,19.30
2022-10-17T09:15:34.726Z,19.30
2022-10-17T09:18:13.173Z,19.30
2022-10-17T09:20:49.573Z,19.30
2022-10-17T09:23:21.358Z,19.30
2022-10-17T09:25:53.538Z,19.20
2022-10-17T09:28:34.770Z,19.10
2022-10-17T09:31:05.052Z,19.00
2022-10-17T09:33:57.653Z,18.90
2022-10-17T09:36:35.861Z,18.80
2022-10-17T09:39:18.974Z,18.70
2022-10-17T09:41:51.782Z,18.70
2022-10-17T09:44:20.906Z,18.70
2022-10-17T09:47:01.660Z,18.80
2022-10-17T09:49:36.835Z,18.80
2022-10-17T09:52:06.131Z,18.70
2022-10-17T09:54:45.250Z,18.60
2022-10-17T09:57:13.255Z,18.60
2022-10-17T10:00:03.146Z,18.60
2022-10-17T10:02:33.565Z,18.50
2022-10-17T10:05:06.095Z,18.50
2022-10-17T10:07:38.220Z,18.50
2022-10-17T10:10:27.753Z,18.50
2022-10-17T10:13:16.935Z,18.60
2022-10-17T10:15:50.018Z,18.70
2022-10-17T10:18:33.816Z,18.80
2022-10-17T10:21:11.100Z,19.00
2022-10-17T10:23:41.296Z,19.10
2022-10-17T10:26:22.604Z,19.20
2022-10-17T10:29:29.336Z,19.30
2022-10-17T10:31:58.458Z,19.30
2022-10-17T10:34:30.296Z,19.40
2022-10-17T10:37:01.966Z,19.40
2022-10-17T10:39:37.404Z,19.40
2022-10-17T10:42:08.597Z,19.30
2022-10-17T10:44:38.230Z,19.30
2022-10-17T10:47:15.469Z,19.20
2022-10-17T10:49:43.258Z,19.10
2022-10-17T10:52:30.396Z,19.00
2022-10-17T10:55:15.299Z,18.90
2022-10-17T10:57:44.059Z,18.80
2022-10-17T11:00:23.294Z,18.70
2022-10-17T11:03:02.918Z,18.60
2022-10-17T11:05:58.538Z,18.60
2022-10-17T11:08:38.931Z,18.60
2022-10-17T11:11:17.921Z,18.60
2022-10-17T11:13:55.106Z,18.60
2022-10-17T11:16:35.535Z,18.70
2022-10-17T11:19:29.782Z,18.70
2022-10-17T11:22:16.150Z,18.70
2022-10-17T11:25:07.276Z,18.70
2022-10-17T11:27:35.142Z,18.70
2022-10-17T11:30:04.081Z,18.80
2022-10-17T11:32:43.796Z,19.00
2022-10-17T11:35:29.300Z,19.00
2022-10-17T11:38:25.364Z,19.10
2022-10-17T11:40:55.135Z,19.10
2022-10-17T11:43:48.704Z,19.00
2022-10-17T11:46:23.743Z,19.00
2022-10-17T11:49:09.908Z,18.90
2022-10-17T11:52:04.376Z,18.90
2022-10-17T11:54:51.233Z,18.90
2022-10-17T11:57:44.061Z,18.80
2022-10-17T12:00:17.173Z,18.80
2022-10-17T12:03:02.111Z,18.70
2022-10-17T12:05:39.761Z,18.70
2022-10-17T12:08:26.942Z,18.60
2022-10-17T12:11:04.973Z,18.60
2022-10-17T12:13:32.706Z,18.60
2022-10-17T12:16:19.513Z,18.60
2022-10-17T12:18:47.578Z,18.60
2022-10-17T12:21:14.659Z,18.60
2022-10-17T12:23:52.105Z,18.60
2022-10-17T12:26:27.482Z,18.60
2022-10-17T12:28:55.733Z,18.70
2022-10-17T12:31:33.338Z,18.80
2022-10-17T12:34:05.651Z,18.90
2022-10-17T12:36:32.194Z,18.90
2022-10-17T12:39:02.484Z,18.90
2022-10-17T12:41:38.361Z,18.90
2022-10-17T12:44:15.128Z,18.90
2022-10-17T12:46:56.803Z,19.00
2022-10-17T12:49:38.086Z,19.00
2022-10-17T12:52:24.942Z,19.10
2022-10-17T12:55:18.306Z,19.10
2022-10-17T12:57:57.122Z,19.10
2022-10-17T13:00:32.119Z,19.10
2022-10-17T13:03:05.887Z,19.10
2022-10-17T13:05:38.828Z,19.00
2022-10-17T13:08:08.811Z,19.00
2022-10-17T13:10:40.718Z,19.00
2022-10-17T13:13:28.427Z,18.90
2022-10-17T13:15:55.561Z,18.90
2022-10-17T13:18:25.514Z,18.80
2022-10-17T13:21:14.865Z,18.80
2022-10-17T13:23:42.223Z,18.70
2022-10-17T13:26:23.685Z,18.70
2022-10-17T13:29:12.246Z,18.60
2022-10-17T13:31:41.146Z,18.60
2022-10-17T13:34:21.610Z,18.50
2022-10-17T13:36:53.850Z,18.40
2022-10-17T13:42:29.889Z,18.50
2022-10-17T13:44:58.633Z,18.60
2022-10-17T13:47:36.593Z,18.60
2022-10-17T13:50:12.722Z,18.70
2022-10-17T13:52:48.162Z,18.90
2022-10-17T13:55:20.220Z,19.00
2022-10-17T13:57:47.169Z,19.00
2022-10-17T14:00:22.784Z,19.00
2022-10-17T14:02:49.595Z,19.00
2022-10-17T14:05:23.455Z,19.00
2022-10-17T14:10:39.875Z,19.00
2022-10-17T14:13:10.792Z,18.90
2022-10-17T14:15:37.491Z,18.90
2022-10-17T14:18:08.304Z,18.90
2022-10-17T14:23:43.757Z,18.90
2022-10-17T14:26:17.231Z,18.90
2022-10-17T14:28:47.538Z,18.90
2022-10-17T14:31:32.256Z,18.80
2022-10-17T14:34:00.987Z,18.80
2022-10-17T14:36:34.036Z,18.80
2022-10-17T14:39:02.660Z,18.80
2022-10-17T14:41:43.577Z,18.70
2022-10-17T14:44:25.677Z,18.70
2022-10-17T14:46:57.655Z,18.60
2022-10-17T14:49:39.867Z,18.70
2022-10-17T14:52:18.286Z,18.70
2022-10-17T14:54:48.005Z,18.80
2022-10-17T14:57:18.995Z,18.80
2022-10-17T14:59:54.634Z,18.80
2022-10-17T15:02:24.290Z,18.70
2022-10-17T15:04:51.369Z,18.60
2022-10-17T15:07:18.796Z,18.60
2022-10-17T15:09:48.406Z,18.50
2022-10-17T15:12:18.505Z,18.40
2022-10-17T15:14:48.098Z,18.30
2022-10-17T15:17:27.892Z,18.30
2022-10-17T15:19:55.225Z,18.20
2022-10-17T15:22:22.084Z,18.20
2022-10-17T15:24:49.965Z,18.10
2022-10-17T15:27:19.630Z,18.10
2022-10-17T15:29:47.369Z,18.10
2022-10-17T15:32:14.048Z,18.00
2022-10-17T15:34:41.792Z,18.00
2022-10-17T15:37:21.050Z,17.90
2022-10-17T15:39:53.209Z,17.90
2022-10-17T15:42:22.335Z,17.80
2022-10-17T15:44:50.523Z,17.80
2022-10-17T15:47:33.318Z,17.70
2022-10-17T15:50:01.006Z,17.70
2022-10-17T15:52:28.238Z,17.60
2022-10-17T15:54:57.346Z,17.60
2022-10-17T15:57:29.512Z,17.50
2022-10-17T15:59:59.255Z,17.50
2022-10-17T16:02:26.153Z,17.40
2022-10-17T16:04:53.763Z,17.40
2022-10-17T16:07:21.627Z,17.30
2022-10-17T16:09:49.058Z,17.30
2022-10-17T16:12:20.827Z,17.30
2022-10-17T16:14:48.211Z,17.20
2022-10-17T16:17:16.362Z,17.20
2022-10-17T16:19:44.232Z,17.10
2022-10-17T16:22:29.867Z,17.10
2022-10-17T16:24:59.514Z,17.10
2022-10-17T16:27:26.252Z,17.00
2022-10-17T16:29:53.559Z,17.00
2022-10-17T16:32:20.143Z,17.00
2022-10-17T16:34:47.394Z,16.90
2022-10-17T16:37:14.019Z,16.90
2022-10-17T16:39:41.316Z,16.90
2022-10-17T16:42:07.950Z,16.90
2022-10-17T16:44:35.337Z,16.80
2022-10-17T16:47:01.992Z,16.80
2022-10-17T16:49:29.080Z,16.70
2022-10-17T16:51:55.656Z,16.70
2022-10-17T16:54:22.896Z,16.70
2022-10-17T16:56:50.292Z,16.70
2022-10-17T16:59:17.537Z,16.60
2022-10-17T17:01:44.105Z,16.60
2022-10-17T17:04:11.350Z,16.60
2022-10-17T17:06:38.015Z,16.50
2022-10-17T17:09:05.341Z,16.50
2022-10-17T17:11:32.553Z,16.40
2022-10-17T17:14:01.909Z,16.40
2022-10-17T17:16:29.544Z,16.40
2022-10-17T17:19:03.064Z,16.40
2022-10-17T17:21:31.415Z,16.30
2022-10-17T17:24:00.745Z,16.30
2022-10-17T17:26:29.434Z,16.30
2022-10-17T17:28:58.979Z,16.30
2022-10-17T17:31:28.838Z,16.20
2022-10-17T17:36:33.270Z,16.20
2022-10-17T17:39:02.917Z,16.20
2022-10-17T17:41:29.806Z,16.20
2022-10-17T17:43:57.848Z,16.20
2022-10-17T17:46:25.474Z,16.20
2022-10-17T17:48:54.395Z,16.20
2022-10-17T17:51:29.028Z,16.20
2022-10-17T17:53:57.513Z,16.20
2022-10-17T17:56:29.220Z,16.20
2022-10-17T17:58:59.514Z,16.20
2022-10-17T18:01:28.758Z,16.20
2022-10-17T18:03:56.703Z,16.20
2022-10-17T18:06:23.430Z,16.20
2022-10-17T18:08:56.316Z,16.20
2022-10-17T18:11:23.041Z,16.10
2022-10-17T18:13:54.970Z,16.10
2022-10-17T18:16:22.313Z,16.10
2022-10-17T18:18:49.456Z,16.10
2022-10-17T18:21:17.368Z,16.10
2022-10-17T18:23:46.016Z,16.10
2022-10-17T18:26:14.807Z,16.00
2022-10-17T18:28:42.993Z,16.00
2022-10-17T18:31:22.714Z,16.00
2022-10-17T18:33:52.842Z,15.90
2022-10-17T18:36:20.801Z,15.90
2022-10-17T18:38:48.847Z,15.90
2022-10-17T18:41:18.370Z,15.90
2022-10-17T18:43:47.137Z,15.80
2022-10-17T18:46:16.679Z,15.80
2022-10-17T18:48:45.269Z,15.80
2022-10-17T18:51:13.294Z,15.80
2022-10-17T18:53:46.087Z,15.80
2022-10-17T18:56:13.841Z,15.70
2022-10-17T18:58:41.107Z,15.70
2022-10-17T19:01:15.723Z,15.70
2022-10-17T19:03:44.506Z,15.70
2022-10-17T19:06:12.667Z,15.60
2022-10-17T19:08:41.947Z,15.60
2022-10-17T19:11:11.287Z,15.60
2022-10-17T19:13:38.813Z,15.60
2022-10-17T19:16:08.024Z,15.60
2022-10-17T19:18:35.548Z,15.60
2022-10-17T19:21:10.743Z,15.60
2022-10-17T19:23:38.387Z,15.50
2022-10-17T19:26:10.984Z,15.50
2022-10-17T19:28:39.841Z,15.50
2022-10-17T19:31:06.980Z,15.50
2022-10-17T19:33:34.701Z,15.40
2022-10-17T19:36:04.592Z,15.40
2022-10-17T19:38:32.065Z,15.40
2022-10-17T19:43:27.216Z,15.40
2022-10-17T19:46:00.016Z,15.40
2022-10-17T19:48:27.361Z,15.30
2022-10-17T19:50:54.551Z,15.30
2022-10-17T19:53:24.902Z,15.30
2022-10-17T19:55:51.814Z,15.30
2022-10-17T19:58:19.232Z,15.30
2022-10-17T20:00:48.591Z,15.30
2022-10-17T20:03:15.267Z,15.30
2022-10-17T20:05:42.575Z,15.30
2022-10-17T20:08:09.510Z,15.30
2022-10-17T20:10:36.230Z,15.30
2022-10-17T20:13:03.718Z,15.30
2022-10-17T20:15:30.438Z,15.30
2022-10-17T20:17:57.519Z,15.30
2022-10-17T20:20:24.706Z,15.30
2022-10-17T20:22:51.280Z,15.30
2022-10-17T20:25:18.571Z,15.30
2022-10-17T20:27:45.426Z,15.30
2022-10-17T20:30:12.405Z,15.20
2022-10-17T20:32:40.115Z,15.20
2022-10-17T20:35:07.833Z,15.20
2022-10-17T20:37:41.487Z,15.20
2022-10-17T20:40:33.454Z,15.20
2022-10-17T20:42:57.699Z,15.20
2022-10-17T20:45:37.539Z,15.20
2022-10-17T20:48:15.926Z,15.10
2022-10-17T20:50:43.471Z,15.10
2022-10-17T20:53:35.626Z,15.10
2022-10-17T20:56:13.418Z,15.00
2022-10-17T20:58:40.360Z,15.00
2022-10-17T21:01:11.041Z,15.00
2022-10-17T21:03:42.402Z,15.00
2022-10-17T21:06:12.645Z,15.00
2022-10-17T21:08:40.285Z,14.90
2022-10-17T21:11:13.102Z,14.90
2022-10-17T21:13:41.000Z,14.90
2022-10-17T21:16:14.581Z,14.90
2022-10-17T21:18:42.750Z,14.90
2022-10-17T21:21:12.553Z,14.80
2022-10-17T21:23:41.105Z,14.80
2022-10-17T21:26:09.643Z,14.80
2022-10-17T21:28:37.678Z,14.80
2022-10-17T21:31:16.337Z,14.80
2022-10-17T21:33:48.852Z,14.70
2022-10-17T21:36:16.703Z,14.70
2022-10-17T21:38:45.703Z,14.70
2022-10-17T21:41:14.230Z,14.70
2022-10-17T21:43:42.502Z,14.70
2022-10-17T21:46:17.350Z,14.70
2022-10-17T21:48:46.532Z,14.70
2022-10-17T21:51:18.322Z,14.70
2022-10-17T21:53:45.819Z,14.70
2022-10-17T21:56:17.834Z,14.70
2022-10-17T21:58:46.038Z,14.70
2022-10-17T22:01:19.314Z,14.70
2022-10-17T22:03:51.925Z,14.70
2022-10-17T22:09:23.590Z,14.60
2022-10-17T22:11:53.839Z,14.60
2022-10-17T22:14:22.755Z,14.60
2022-10-17T22:16:49.890Z,14.60
2022-10-17T22:19:21.479Z,14.50
2022-10-17T22:21:48.452Z,14.60
2022-10-17T22:24:18.071Z,14.60
2022-10-17T22:26:45.243Z,14.60
2022-10-17T22:29:13.159Z,14.50
2022-10-17T22:31:40.032Z,14.50
2022-10-17T22:34:07.977Z,14.50
2022-10-17T22:36:35.323Z,14.50
2022-10-17T22:39:03.448Z,14.50
2022-10-17T22:41:30.103Z,14.50
2022-10-17T22:43:57.778Z,14.50
2022-10-17T22:46:24.573Z,14.50
2022-10-17T22:48:52.004Z,14.60
2022-10-17T22:51:18.712Z,14.50
2022-10-17T22:53:46.077Z,14.60
2022-10-17T22:56:15.643Z,14.60
2022-10-17T22:58:43.382Z,14.60
2022-10-17T23:01:17.171Z,14.50
2022-10-17T23:03:44.914Z,14.60
2022-10-17T23:06:12.306Z,14.60
2022-10-17T23:08:40.334Z,14.50
2022-10-17T23:11:08.068Z,14.50
2022-10-17T23:13:35.714Z,14.50
2022-10-17T23:16:02.438Z,14.50
2022-10-17T23:20:57.490Z,14.50
2022-10-17T23:23:24.919Z,14.50
2022-10-17T23:25:51.770Z,14.50
2022-10-17T23:28:19.047Z,14.50
2022-10-17T23:30:45.910Z,14.50
2022-10-17T23:33:14.256Z,14.50
2022-10-17T23:35:41.124Z,14.50
2022-10-17T23:38:09.099Z,14.50
2022-10-17T23:40:35.836Z,14.60
2022-10-17T23:43:04.293Z,14.50
2022-10-17T23:45:36.029Z,14.50
2022-10-17T23:48:05.089Z,14.50
2022-10-17T23:50:31.683Z,14.50
2022-10-17T23:52:58.968Z,14.50
2022-10-17T23:55:25.573Z,14.60
2022-10-17T23:57:53.324Z,14.50
